Time;durP1;ratioP1;P1;durP2;ratioP2;P2;SDS_P1;SDS_P2;PMS_P1;PMS_P2;Temp;Humidity;BMP_temperature;BMP_pressure;BME280_temperature;BME280_humidity;BME280_pressure;Samples;Min_cycle;Max_cycle;Signal;HPM_P1;HPM_P2
2022/08/11 00:01:10;;;;;;;2.43;2.20;;;22.50;72.80;;;;;;6215551;23;20420;-76
2022/08/11 00:03:44;;;;;;;2.87;2.40;;;22.50;72.80;;;;;;6215716;23;20472;-79
2022/08/11 00:06:13;;;;;;;4.43;2.67;;;22.40;73.00;;;;;;6216532;23;20423;-80
2022/08/11 00:08:42;;;;;;;2.23;2.03;;;22.40;73.30;;;;;;6214837;23;20455;-79
2022/08/11 00:11:12;;;;;;;3.90;2.40;;;22.40;73.50;;;;;;6214657;23;20868;-74
2022/08/11 00:13:44;;;;;;;4.70;3.13;;;22.30;73.60;;;;;;6217228;23;20435;-76
2022/08/11 00:16:14;;;;;;;2.53;2.33;;;22.30;73.70;;;;;;6216601;23;20424;-75
2022/08/11 00:18:43;;;;;;;3.27;2.40;;;22.30;73.70;;;;;;6216950;23;20431;-80
2022/08/11 00:21:11;;;;;;;5.70;2.50;;;22.30;73.80;;;;;;6216645;23;20948;-79
2022/08/11 00:23:47;;;;;;;2.90;2.07;;;22.30;74.00;;;;;;6216803;23;20493;-75
2022/08/11 00:26:21;;;;;;;2.67;2.13;;;22.20;73.80;;;;;;6205138;23;20442;-75
2022/08/11 00:28:50;;;;;;;2.23;2.03;;;22.20;73.90;;;;;;6222357;23;20490;-76
2022/08/11 00:31:30;;;;;;;4.63;2.60;;;22.20;74.00;;;;;;6216384;23;20880;-76
2022/08/11 00:34:00;;;;;;;3.40;2.87;;;22.20;74.00;;;;;;6203157;23;20442;-79
2022/08/11 00:36:30;;;;;;;2.33;2.10;;;22.20;74.10;;;;;;6216828;23;20435;-78
2022/08/11 00:40:09;;;;;;;2.77;2.57;;;22.20;74.10;;;;;;6216130;23;20442;-75
2022/08/11 00:42:50;;;;;;;2.80;2.50;;;22.20;74.20;;;;;;6217397;23;20439;-79
2022/08/11 00:45:35;;;;;;;2.50;2.30;;;22.10;74.10;;;;;;6217676;23;20436;-79
2022/08/11 00:48:10;;;;;;;4.03;3.10;;;22.10;75.00;;;;;;6216851;23;20732;-76
2022/08/11 00:50:47;;;;;;;4.80;3.77;;;22.10;74.20;;;;;;6216706;23;20545;-75
2022/08/11 00:53:38;;;;;;;5.50;2.90;;;22.10;74.30;;;;;;6216350;23;20439;-74
2022/08/11 00:56:34;;;;;;;2.13;2.03;;;22.00;74.40;;;;;;6216206;23;20744;-74
2022/08/11 00:59:43;;;;;;;2.20;2.00;;;22.00;74.50;;;;;;6214666;23;20955;-76
2022/08/11 01:02:17;;;;;;;3.77;2.60;;;22.00;74.60;;;;;;6208406;23;20547;-79
2022/08/11 01:05:26;;;;;;;4.57;2.80;;;22.00;74.60;;;;;;6216840;23;20506;-81
2022/08/11 01:08:24;;;;;;;2.90;2.43;;;21.90;74.60;;;;;;6216734;23;20502;-75
2022/08/11 01:11:30;;;;;;;2.80;2.60;;;21.90;74.70;;;;;;6215427;23;20435;-75
2022/08/11 01:14:40;;;;;;;4.00;3.13;;;21.80;74.90;;;;;;6213778;23;20462;-80
2022/08/11 01:17:57;;;;;;;2.00;1.90;;;21.80;75.00;;;;;;6179665;23;20438;-80
2022/08/11 01:20:59;;;;;;;2.80;2.47;;;21.80;75.20;;;;;;6215253;23;20454;-80
2022/08/11 01:24:10;;;;;;;2.90;2.70;;;21.70;75.20;;;;;;6216525;23;20430;-76
2022/08/11 01:27:22;;;;;;;3.10;2.83;;;21.80;75.40;;;;;;6215931;23;20502;-80
2022/08/11 01:30:27;;;;;;;3.10;2.23;;;21.70;75.40;;;;;;6215619;23;20423;-75
2022/08/11 01:33:36;;;;;;;7.60;2.60;;;21.70;75.50;;;;;;6215583;23;20424;-76
2022/08/11 01:36:49;;;;;;;2.10;1.90;;;21.60;75.50;;;;;;6215366;23;20437;-75
2022/08/11 01:39:46;;;;;;;2.33;2.13;;;21.60;75.60;;;;;;6216978;23;20497;-76
2022/08/11 01:45:52;;;;;;;2.30;2.10;;;21.50;75.80;;;;;;6216153;23;20441;-78
2022/08/11 01:48:29;;;;;;;3.87;2.90;;;21.50;75.80;;;;;;6215321;23;20923;-80
2022/08/11 01:51:11;;;;;;;3.17;2.63;;;21.50;76.40;;;;;;6215452;23;20439;-76
2022/08/11 01:53:51;;;;;;;2.77;2.00;;;21.40;76.30;;;;;;6216002;23;20433;-80
2022/08/11 01:56:34;;;;;;;3.43;3.13;;;21.40;76.30;;;;;;6219908;22;20983;-80
2022/08/11 01:59:13;;;;;;;3.40;2.40;;;21.40;76.50;;;;;;6277263;22;20495;-80
2022/08/11 02:02:06;;;;;;;2.77;2.57;;;21.40;76.70;;;;;;6270903;22;20444;-80
2022/08/11 02:04:38;;;;;;;4.13;2.70;;;21.30;76.70;;;;;;6276922;22;20427;-76
2022/08/11 02:07:15;;;;;;;4.53;3.10;;;21.30;76.70;;;;;;6276755;22;20430;-76
2022/08/11 02:09:56;;;;;;;4.43;2.83;;;21.30;76.70;;;;;;6275972;22;20509;-76
2022/08/11 02:12:45;;;;;;;2.90;2.17;;;21.30;77.00;;;;;;6276566;22;20432;-80
2022/08/11 02:15:23;;;;;;;2.77;2.57;;;21.20;77.10;;;;;;6276772;22;20897;-78
2022/08/11 02:18:00;;;;;;;2.23;2.03;;;21.20;77.20;;;;;;6277005;22;20436;-75
2022/08/11 02:23:39;;;;;;;3.10;2.90;;;21.10;77.20;;;;;;6276370;22;20491;-78
2022/08/11 02:26:11;;;;;;;2.93;2.73;;;21.10;77.20;;;;;;6276368;22;20445;-79
2022/08/11 02:29:01;;;;;;;2.03;1.93;;;21.20;77.50;;;;;;6276217;22;20757;-74
2022/08/11 02:34:42;;;;;;;4.60;2.47;;;21.10;77.40;;;;;;6276256;22;20436;-80
2022/08/11 02:37:17;;;;;;;3.97;2.67;;;21.10;77.30;;;;;;6276585;22;20434;-75
2022/08/11 02:39:54;;;;;;;2.90;2.70;;;21.10;77.40;;;;;;6276140;22;20422;-75
2022/08/11 02:42:30;;;;;;;2.53;2.33;;;21.10;77.60;;;;;;6276456;22;20436;-75
2022/08/11 02:45:16;;;;;;;5.20;3.23;;;21.10;77.60;;;;;;6276206;22;20425;-75
2022/08/11 02:50:41;;;;;;;3.30;2.97;;;21.00;77.90;;;;;;6274831;22;20413;-76
2022/08/11 02:53:16;;;;;;;3.30;3.00;;;21.00;78.00;;;;;;6276856;22;20929;-79
2022/08/11 02:55:57;;;;;;;3.13;2.80;;;21.00;78.20;;;;;;6275459;22;20436;-76
2022/08/11 02:58:37;;;;;;;2.80;2.57;;;21.00;79.00;;;;;;6275505;22;20418;-80
2022/08/11 03:01:13;;;;;;;3.00;2.70;;;21.00;78.20;;;;;;6276399;22;20468;-80
2022/08/11 03:03:52;;;;;;;3.60;3.30;;;21.00;78.30;;;;;;6276096;22;20487;-79
2022/08/11 03:06:29;;;;;;;5.37;2.87;;;21.00;78.30;;;;;;6276387;22;20442;-75
2022/08/11 03:09:07;;;;;;;7.07;3.00;;;20.90;78.40;;;;;;6276072;22;20471;-75
2022/08/11 03:17:38;;;;;;;3.43;3.13;;;20.90;78.60;;;;;;6276628;22;20500;-75
2022/08/11 03:20:21;;;;;;;2.90;2.70;;;20.90;78.70;;;;;;6275522;22;20479;-75
2022/08/11 03:22:55;;;;;;;3.67;3.37;;;20.90;78.80;;;;;;6275736;22;20436;-76
2022/08/11 03:25:30;;;;;;;3.37;3.07;;;20.80;78.80;;;;;;6275421;22;20438;-76
2022/08/11 03:28:04;;;;;;;3.47;3.03;;;20.80;78.80;;;;;;6275678;22;20432;-80
2022/08/11 03:30:42;;;;;;;3.40;3.10;;;20.80;78.80;;;;;;6275699;22;20430;-80
2022/08/11 03:36:14;;;;;;;3.40;3.10;;;20.80;78.80;;;;;;6234110;22;20433;-79
2022/08/11 03:38:59;;;;;;;4.37;3.60;;;20.80;78.90;;;;;;6278461;22;20913;-79
2022/08/11 03:44:32;;;;;;;4.73;3.87;;;20.80;79.20;;;;;;6277779;22;20888;-77
2022/08/11 03:47:24;;;;;;;3.83;3.30;;;20.80;79.30;;;;;;6277496;22;20469;-80
2022/08/11 03:50:16;;;;;;;4.10;3.70;;;20.80;79.30;;;;;;6277717;22;20426;-76
2022/08/11 03:53:08;;;;;;;3.13;2.90;;;20.70;79.20;;;;;;6278310;22;20430;-75
2022/08/11 03:56:07;;;;;;;4.23;3.83;;;20.80;79.30;;;;;;6277678;22;20421;-78
2022/08/11 03:58:54;;;;;;;3.50;3.20;;;20.80;79.50;;;;;;6277369;22;20906;-75
2022/08/11 04:02:08;;;;;;;4.40;4.00;;;20.70;79.50;;;;;;6277938;22;20905;-81
2022/08/11 04:05:15;;;;;;;4.03;3.40;;;20.80;79.70;;;;;;6278347;22;20444;-79
2022/08/11 04:08:06;;;;;;;4.33;3.90;;;20.70;79.50;;;;;;6276889;22;20437;-78
2022/08/11 04:11:06;;;;;;;7.60;3.30;;;20.70;79.60;;;;;;6277375;22;20425;-79
2022/08/11 04:15:58;;;;;;;4.90;3.60;;;20.70;79.80;;;;;;6276311;22;20436;-75
2022/08/11 04:16:53;;;;;;;5.67;3.60;;;20.70;79.70;;;;;;6276949;22;20871;-79
2022/08/11 04:19:51;;;;;;;3.03;2.83;;;20.70;79.80;;;;;;6278152;22;20458;-80
2022/08/11 04:22:54;;;;;;;5.03;3.80;;;20.70;79.90;;;;;;6278610;22;20436;-76
2022/08/11 04:25:37;;;;;;;4.23;3.60;;;20.70;80.00;;;;;;6270842;22;20436;-76
2022/08/11 04:28:25;;;;;;;3.20;2.90;;;20.70;80.00;;;;;;6277957;22;20509;-79
2022/08/11 04:31:05;;;;;;;4.43;4.03;;;20.70;80.00;;;;;;6277833;22;20738;-80
2022/08/11 04:33:58;;;;;;;4.40;4.00;;;20.70;80.10;;;;;;6277327;22;20422;-76
2022/08/11 04:40:18;;;;;;;7.30;4.10;;;20.70;80.20;;;;;;6263774;22;20432;-80
2022/08/11 04:43:40;;;;;;;4.23;3.83;;;20.70;80.20;;;;;;6276784;22;20430;-80
2022/08/11 04:46:31;;;;;;;4.80;4.30;;;20.70;80.30;;;;;;6171619;23;20467;-75
2022/08/11 05:01:41;;;;;;;6.77;4.43;;;20.80;80.60;;;;;;6275713;22;20492;-75
2022/08/11 05:08:14;;;;;;;5.80;5.33;;;20.90;80.50;;;;;;6276839;22;20425;-75
2022/08/11 05:10:56;;;;;;;4.20;3.90;;;20.90;80.20;;;;;;6278137;22;20419;-75
2022/08/11 05:36:08;;;;;;;6.03;4.97;;;21.40;79.00;;;;;;6277320;22;20736;-75
2022/08/11 05:58:02;;;;;;;6.73;6.07;;;21.80;76.70;;;;;;6277017;22;20441;-76
2022/08/11 06:00:34;;;;;;;5.73;4.53;;;21.90;76.70;;;;;;6276028;22;20499;-76
2022/08/11 06:03:06;;;;;;;5.67;5.17;;;22.00;76.70;;;;;;6276252;22;20443;-76
2022/08/11 06:05:34;;;;;;;6.10;5.63;;;22.00;76.30;;;;;;6276369;22;20429;-76
2022/08/11 06:08:02;;;;;;;7.23;5.30;;;22.00;76.20;;;;;;6276560;22;20565;-80
2022/08/11 06:10:33;;;;;;;7.60;5.30;;;22.10;76.30;;;;;;6276541;22;20904;-75
2022/08/11 06:13:01;;;;;;;5.13;4.73;;;22.20;76.10;;;;;;6276890;22;20450;-79
2022/08/11 06:15:34;;;;;;;8.70;5.60;;;22.30;76.80;;;;;;6274663;22;20933;-79
2022/08/11 06:18:02;;;;;;;5.93;5.37;;;22.40;76.70;;;;;;6277327;22;20448;-79
2022/08/11 06:20:36;;;;;;;6.53;5.93;;;22.40;75.80;;;;;;6276531;22;20441;-79
2022/08/11 06:23:05;;;;;;;10.03;5.30;;;22.40;75.30;;;;;;6276616;22;20434;-80
2022/08/11 06:25:36;;;;;;;7.13;5.40;;;22.50;75.20;;;;;;6262911;22;20432;-78
2022/08/11 06:28:06;;;;;;;6.23;5.57;;;22.60;75.30;;;;;;6276945;22;20442;-80
2022/08/11 06:30:39;;;;;;;6.37;5.40;;;22.70;75.40;;;;;;6275992;22;20445;-79
2022/08/11 06:33:10;;;;;;;5.83;5.30;;;22.70;74.80;;;;;;6276944;22;20776;-79
2022/08/11 06:35:47;;;;;;;4.73;4.43;;;22.70;74.70;;;;;;6276067;22;20584;-80
2022/08/11 06:38:27;;;;;;;5.30;4.80;;;22.90;75.30;;;;;;6277229;22;20921;-76
2022/08/11 06:43:51;;;;;;;4.53;4.17;;;23.00;75.70;;;;;;6276361;22;20445;-79
2022/08/11 06:46:26;;;;;;;6.63;4.80;;;23.20;76.70;;;;;;6276168;22;20462;-79
2022/08/11 06:48:54;;;;;;;5.67;4.50;;;23.20;75.60;;;;;;6275483;22;20790;-79
2022/08/11 06:51:21;;;;;;;4.77;4.37;;;23.30;74.90;;;;;;6277008;22;20942;-79
2022/08/11 06:53:52;;;;;;;5.00;4.57;;;23.40;74.60;;;;;;6275875;22;20440;-80
2022/08/11 07:02:11;;;;;;;4.10;3.77;;;23.70;74.60;;;;;;6275302;22;20464;-76
2022/08/11 07:04:43;;;;;;;5.47;4.80;;;23.80;74.90;;;;;;6276241;22;20495;-76
2022/08/11 07:16:41;;;;;;;6.00;4.73;;;24.20;74.30;;;;;;6277862;22;20456;-75
2022/08/11 07:30:28;;;;;;;4.70;4.30;;;24.60;72.30;;;;;;6277823;22;20451;-80
2022/08/11 07:32:59;;;;;;;5.07;4.57;;;24.80;73.00;;;;;;6277391;22;20447;-79
2022/08/11 07:35:33;;;;;;;5.83;4.00;;;24.90;73.00;;;;;;6277834;22;20905;-75
2022/08/11 07:38:05;;;;;;;5.20;4.20;;;25.00;72.70;;;;;;6277936;22;20414;-75
2022/08/11 07:40:34;;;;;;;4.70;4.30;;;25.10;70.70;;;;;;6277937;22;20440;-75
2022/08/11 07:43:03;;;;;;;5.10;4.30;;;25.20;70.90;;;;;;6278145;22;20446;-80
2022/08/11 07:53:55;;;;;;;5.77;4.77;;;25.60;71.30;;;;;;6275908;22;20514;-80
2022/08/11 07:56:25;;;;;;;4.83;4.43;;;25.70;69.60;;;;;;6242443;22;20430;-79
2022/08/11 08:18:11;;;;;;;8.97;4.33;;;26.20;66.40;;;;;;6247710;22;20441;-79
2022/08/11 08:20:45;;;;;;;4.80;4.30;;;26.30;66.60;;;;;;6247466;22;20422;-73
2022/08/11 08:23:31;;;;;;;4.37;4.00;;;26.30;66.10;;;;;;6246380;22;20442;-76
2022/08/11 08:26:00;;;;;;;5.20;3.70;;;26.50;66.10;;;;;;6246541;22;20442;-75
2022/08/11 08:28:28;;;;;;;4.03;3.73;;;26.50;66.20;;;;;;6245918;22;20438;-75
2022/08/11 08:31:06;;;;;;;6.07;4.30;;;26.60;65.40;;;;;;6231251;22;20435;-80
2022/08/11 08:33:35;;;;;;;5.37;3.90;;;26.70;66.40;;;;;;6241815;22;20433;-79
2022/08/11 08:36:15;;;;;;;5.17;4.13;;;26.70;66.20;;;;;;6247378;22;20442;-77
2022/08/11 08:38:50;;;;;;;5.73;3.80;;;26.80;66.10;;;;;;6246668;22;20433;-79
2022/08/11 08:41:25;;;;;;;4.93;3.87;;;26.80;63.60;;;;;;6246925;22;20437;-78
2022/08/11 08:44:01;;;;;;;5.43;3.93;;;26.90;63.50;;;;;;6230439;22;20446;-81
2022/08/11 08:46:37;;;;;;;4.13;3.73;;;26.80;61.50;;;;;;6246174;22;20509;-76
2022/08/11 08:49:08;;;;;;;3.60;3.10;;;26.90;62.10;;;;;;6244598;22;20484;-75
2022/08/11 08:51:41;;;;;;;3.80;3.50;;;27.00;62.90;;;;;;6247507;22;20435;-80
2022/08/11 08:54:18;;;;;;;5.63;4.07;;;27.00;61.50;;;;;;6231980;22;20426;-80
2022/08/11 08:56:46;;;;;;;6.83;4.17;;;27.00;61.00;;;;;;6230011;22;20500;-78
2022/08/11 08:59:17;;;;;;;6.83;3.90;;;26.90;60.90;;;;;;6247358;22;20446;-80
2022/08/11 09:01:54;;;;;;;4.00;3.70;;;27.00;62.20;;;;;;6246358;22;20427;-76
2022/08/11 09:04:23;;;;;;;3.93;3.13;;;27.10;61.40;;;;;;6246667;22;20422;-76
2022/08/11 09:06:55;;;;;;;4.03;3.73;;;27.20;61.40;;;;;;6246729;22;20438;-76
2022/08/11 09:09:24;;;;;;;3.53;3.00;;;27.30;60.80;;;;;;6246613;22;20429;-76
2022/08/11 09:11:52;;;;;;;6.57;4.17;;;27.30;59.50;;;;;;6247144;22;20782;-80
2022/08/11 09:14:22;;;;;;;4.23;3.30;;;27.40;59.50;;;;;;6246568;22;20427;-80
2022/08/11 09:16:51;;;;;;;6.23;3.97;;;27.40;59.80;;;;;;6247163;22;20455;-80
2022/08/11 09:19:21;;;;;;;4.80;4.40;;;27.40;59.30;;;;;;6246433;22;20465;-81
2022/08/11 09:26:58;;;;;;;3.77;3.50;;;27.50;59.10;;;;;;6246136;22;20435;-80
2022/08/11 09:27:27;;;;;;;3.77;3.30;;;27.60;59.50;;;;;;6246763;22;20442;-73
2022/08/11 09:30:08;;;;;;;3.90;3.07;;;27.60;58.80;;;;;;6226345;22;20789;-78
2022/08/11 09:32:46;;;;;;;3.00;2.80;;;27.70;58.80;;;;;;6246556;22;20427;-80
2022/08/11 09:35:16;;;;;;;4.00;3.27;;;27.70;59.10;;;;;;6246709;22;20439;-80
2022/08/11 09:40:29;;;;;;;3.87;3.57;;;27.80;58.80;;;;;;6244893;22;20438;-79
2022/08/11 09:45:49;;;;;;;3.70;3.40;;;27.90;58.30;;;;;;6245553;22;20457;-75
2022/08/11 09:48:17;;;;;;;5.80;3.50;;;27.80;57.70;;;;;;6246230;22;20504;-82
2022/08/11 09:50:46;;;;;;;3.33;3.13;;;27.80;57.30;;;;;;6246259;22;20498;-80
2022/08/11 09:53:15;;;;;;;4.40;3.47;;;27.80;56.80;;;;;;6246431;22;20508;-76
2022/08/11 09:55:44;;;;;;;5.03;3.07;;;27.80;56.40;;;;;;6231825;22;20526;-76
2022/08/11 09:58:13;;;;;;;3.57;3.27;;;27.90;57.00;;;;;;6245925;22;20442;-76
2022/08/11 10:00:42;;;;;;;6.13;3.80;;;27.90;56.80;;;;;;6245789;22;20450;-80
2022/08/11 10:03:13;;;;;;;4.80;3.20;;;28.00;57.00;;;;;;6244960;22;20469;-76
2022/08/11 10:08:30;;;;;;;3.97;3.47;;;28.00;57.80;;;;;;6246221;22;20458;-77
2022/08/11 10:10:59;;;;;;;8.03;4.13;;;28.10;57.50;;;;;;6230272;22;20431;-77
2022/08/11 10:13:32;;;;;;;4.77;3.57;;;28.10;57.00;;;;;;6231462;22;20438;-76
2022/08/11 10:16:07;;;;;;;3.83;3.53;;;28.20;56.30;;;;;;6241268;22;20910;-74
2022/08/11 10:18:48;;;;;;;4.43;3.20;;;28.20;56.10;;;;;;6244734;22;20886;-78
2022/08/11 10:21:27;;;;;;;2.90;2.70;;;28.30;55.60;;;;;;6246529;22;20435;-80
2022/08/11 10:26:57;;;;;;;3.43;3.13;;;28.40;55.20;;;;;;6245925;22;20462;-79
2022/08/11 10:35:06;;;;;;;4.07;3.43;;;28.60;56.00;;;;;;6232835;22;20504;-76
2022/08/11 10:37:38;;;;;;;3.17;2.97;;;28.70;55.30;;;;;;6246150;22;20517;-76
2022/08/11 10:40:09;;;;;;;3.43;3.13;;;28.80;55.20;;;;;;6244614;22;20501;-81
2022/08/11 10:48:09;;;;;;;3.33;3.03;;;28.70;52.80;;;;;;6245025;22;20442;-75
2022/08/11 10:59:10;;;;;;;4.10;3.00;;;28.60;51.80;;;;;;6223741;23;20430;-76
2022/08/11 11:01:41;;;;;;;3.77;3.57;;;28.60;52.20;;;;;;6215980;23;20431;-76
2022/08/11 11:04:12;;;;;;;3.90;2.97;;;28.50;52.30;;;;;;6215620;23;20451;-77
2022/08/11 11:06:53;;;;;;;4.17;3.73;;;28.60;52.60;;;;;;6212533;23;20432;-80
2022/08/11 11:09:28;;;;;;;6.27;3.20;;;28.50;52.40;;;;;;6214334;23;20497;-76
2022/08/11 11:20:24;;;;;;;6.57;3.57;;;28.70;52.00;;;;;;6212248;23;20516;-76
2022/08/11 11:23:07;;;;;;;5.00;3.50;;;28.80;52.30;;;;;;6226548;23;20514;-75
2022/08/11 11:26:05;;;;;;;3.90;3.60;;;28.80;52.80;;;;;;6213516;23;20428;-76
2022/08/11 11:28:58;;;;;;;3.97;3.60;;;28.90;52.80;;;;;;6213941;23;20440;-76
2022/08/11 11:31:36;;;;;;;2.77;2.57;;;28.80;52.00;;;;;;6202033;23;20436;-76
2022/08/11 11:34:20;;;;;;;3.50;3.17;;;28.90;52.20;;;;;;6214010;23;20538;-76
2022/08/11 11:36:54;;;;;;;2.80;2.60;;;28.90;51.80;;;;;;6213576;23;20497;-77
2022/08/11 11:39:23;;;;;;;3.00;2.80;;;28.90;51.70;;;;;;6220615;23;20518;-80
2022/08/11 11:41:54;;;;;;;3.43;3.13;;;28.90;51.30;;;;;;6216393;23;20440;-76
2022/08/11 11:44:25;;;;;;;3.50;3.27;;;28.80;51.40;;;;;;6212921;23;20795;-77
2022/08/11 11:46:56;;;;;;;5.77;3.07;;;28.90;51.60;;;;;;6212933;23;20524;-76
2022/08/11 11:49:41;;;;;;;3.23;3.00;;;28.90;51.70;;;;;;6213253;23;20440;-80
2022/08/11 11:52:13;;;;;;;3.43;3.20;;;28.90;51.50;;;;;;6214276;23;20411;-78
2022/08/11 11:54:42;;;;;;;3.30;3.03;;;28.90;51.40;;;;;;6215531;23;20498;-76
2022/08/11 12:02:40;;;;;;;3.57;3.27;;;28.80;51.20;;;;;;6259122;22;20484;-81
2022/08/11 12:05:10;;;;;;;3.30;3.00;;;28.90;51.40;;;;;;6249525;22;20788;-75
2022/08/11 12:10:23;;;;;;;4.50;3.07;;;28.90;51.10;;;;;;6276313;22;20724;-76
2022/08/11 12:15:37;;;;;;;3.40;3.10;;;28.90;50.70;;;;;;6277693;22;20440;-75
2022/08/11 12:18:06;;;;;;;3.33;3.00;;;28.90;50.90;;;;;;6274169;22;20426;-79
2022/08/11 12:20:33;;;;;;;8.30;3.57;;;28.90;50.70;;;;;;6251532;22;20435;-80
2022/08/11 12:28:31;;;;;;;3.00;2.80;;;29.10;50.60;;;;;;6278270;22;20520;-81
2022/08/11 12:30:58;;;;;;;3.97;3.20;;;29.10;50.30;;;;;;6277212;22;20501;-80
2022/08/11 12:33:28;;;;;;;3.67;3.03;;;29.10;50.10;;;;;;6277700;22;20450;-80
2022/08/11 12:36:15;;;;;;;4.60;3.20;;;29.10;49.90;;;;;;6264164;22;20444;-79
2022/08/11 12:38:44;;;;;;;3.83;3.17;;;29.20;49.90;;;;;;6264995;22;20437;-80
2022/08/11 12:46:45;;;;;;;4.73;2.77;;;29.20;49.60;;;;;;6277689;22;20448;-80
2022/08/11 12:52:04;;;;;;;2.83;2.63;;;29.30;49.60;;;;;;6235851;22;20513;-80
2022/08/11 12:54:42;;;;;;;3.00;2.70;;;29.30;49.80;;;;;;6254449;22;20781;-79
2022/08/11 13:05:41;;;;;;;4.17;2.70;;;29.30;48.80;;;;;;6214829;23;20930;-80
2022/08/11 13:08:08;;;;;;;3.80;2.93;;;29.30;48.80;;;;;;6214216;23;20720;-76
2022/08/11 13:13:22;;;;;;;2.77;2.47;;;29.30;48.80;;;;;;6277878;22;20959;-76
2022/08/11 13:15:50;;;;;;;3.17;2.97;;;29.30;48.90;;;;;;6277313;22;20429;-80
2022/08/11 13:18:21;;;;;;;4.80;3.40;;;29.30;48.70;;;;;;6277532;22;20501;-80
2022/08/11 13:20:53;;;;;;;2.63;2.40;;;29.30;48.90;;;;;;6276764;22;20417;-79
2022/08/11 13:23:24;;;;;;;3.43;3.00;;;29.30;48.30;;;;;;6277333;22;20437;-75
2022/08/11 13:25:54;;;;;;;3.07;2.80;;;29.30;48.50;;;;;;6275951;22;20494;-76
2022/08/11 13:28:24;;;;;;;3.00;2.80;;;29.30;47.60;;;;;;6277491;22;20514;-77
2022/08/11 13:33:40;;;;;;;3.77;2.50;;;29.30;47.50;;;;;;6276494;22;20437;-76
2022/08/11 13:36:10;;;;;;;5.20;2.77;;;29.30;47.00;;;;;;6275944;22;20438;-80
2022/08/11 13:38:39;;;;;;;3.83;2.73;;;29.30;47.20;;;;;;6276477;22;20517;-77
2022/08/11 13:43:52;;;;;;;4.67;3.00;;;29.20;47.20;;;;;;6274628;22;20425;-81
2022/08/11 13:46:23;;;;;;;3.13;2.40;;;29.20;46.90;;;;;;6277622;22;20720;-76
2022/08/11 13:48:51;;;;;;;2.40;2.30;;;29.30;46.60;;;;;;6276735;22;20462;-76
2022/08/11 13:51:33;;;;;;;4.53;2.40;;;29.30;47.30;;;;;;6276643;22;20434;-76
2022/08/11 13:54:03;;;;;;;2.43;2.23;;;29.30;46.30;;;;;;6276625;22;20526;-75
2022/08/11 13:56:31;;;;;;;2.67;2.47;;;29.30;46.50;;;;;;6276821;22;20449;-74
2022/08/11 13:59:01;;;;;;;7.33;3.20;;;29.30;46.90;;;;;;6276257;22;20761;-76
2022/08/11 14:01:33;;;;;;;4.23;2.67;;;29.30;46.90;;;;;;6275700;22;20499;-77
2022/08/11 14:04:08;;;;;;;3.37;2.80;;;29.30;46.50;;;;;;6276136;22;20460;-74
2022/08/11 14:06:41;;;;;;;3.93;2.53;;;29.30;46.60;;;;;;6276461;22;20461;-75
2022/08/11 14:09:09;;;;;;;2.50;2.30;;;29.30;47.00;;;;;;6275956;22;20476;-80
2022/08/11 14:14:26;;;;;;;3.20;2.07;;;29.30;46.70;;;;;;6277603;22;20436;-77
2022/08/11 14:16:56;;;;;;;4.97;2.63;;;29.20;46.00;;;;;;6275705;22;20432;-76
2022/08/11 14:19:26;;;;;;;2.93;2.73;;;29.20;45.90;;;;;;6277092;22;20434;-75
2022/08/11 14:22:08;;;;;;;2.73;2.50;;;29.20;45.90;;;;;;6275594;22;20935;-76
2022/08/11 14:24:37;;;;;;;5.20;2.30;;;29.10;45.30;;;;;;6276199;22;20533;-75
2022/08/11 14:27:08;;;;;;;3.20;2.57;;;29.10;45.50;;;;;;6273581;22;20513;-75
2022/08/11 14:29:37;;;;;;;2.73;2.50;;;29.10;44.80;;;;;;6276329;22;20464;-80
2022/08/11 14:32:07;;;;;;;2.10;2.00;;;29.20;45.10;;;;;;6276690;22;20446;-80
2022/08/11 14:34:36;;;;;;;2.00;1.90;;;29.20;44.90;;;;;;6276156;22;20505;-80
2022/08/11 14:37:09;;;;;;;3.50;2.33;;;29.30;44.60;;;;;;6276966;22;20426;-79
2022/08/11 14:39:42;;;;;;;2.70;2.27;;;29.30;44.40;;;;;;6276426;22;20434;-78
2022/08/11 14:48:00;;;;;;;2.03;1.93;;;29.20;44.00;;;;;;6276383;22;20410;-81
2022/08/11 14:50:30;;;;;;;2.20;2.00;;;29.20;44.10;;;;;;6276629;22;20438;-79
2022/08/11 14:53:00;;;;;;;2.70;2.03;;;29.30;43.90;;;;;;6276074;22;20475;-76
2022/08/11 14:58:18;;;;;;;2.37;1.90;;;29.20;43.30;;;;;;6275968;22;20449;-76
2022/08/11 15:00:46;;;;;;;4.27;2.10;;;29.30;42.90;;;;;;6276159;22;20905;-80
2022/08/11 15:03:14;;;;;;;3.50;2.10;;;29.20;43.00;;;;;;6276247;22;20434;-80
2022/08/11 15:05:46;;;;;;;2.40;2.10;;;29.20;42.80;;;;;;6276176;22;20748;-80
2022/08/11 15:08:16;;;;;;;2.67;1.70;;;29.20;43.60;;;;;;6276232;22;20453;-80
2022/08/11 15:10:44;;;;;;;3.17;1.93;;;29.20;43.00;;;;;;6275781;22;20426;-80
2022/08/11 15:13:12;;;;;;;2.13;1.73;;;29.20;43.00;;;;;;6276444;22;20437;-80
2022/08/11 15:18:28;;;;;;;5.53;2.00;;;29.20;43.40;;;;;;6274273;22;20440;-78
2022/08/11 15:37:35;;;;;;;5.00;1.83;;;29.10;42.10;;;;;;6279021;22;20483;-81
2022/08/11 15:45:52;;;;;;;1.83;1.70;;;29.00;41.80;;;;;;6278745;22;20433;-81
2022/08/11 15:48:28;;;;;;;2.07;1.87;;;28.90;41.60;;;;;;6278388;22;20854;-80
2022/08/11 15:51:03;;;;;;;3.37;2.07;;;29.00;42.00;;;;;;6278387;22;20434;-81
2022/08/11 15:53:38;;;;;;;2.60;1.93;;;29.00;41.90;;;;;;6278879;22;20425;-81
2022/08/11 15:56:08;;;;;;;1.90;1.80;;;29.00;41.60;;;;;;6277095;22;20507;-80
2022/08/11 16:04:15;;;;;;;2.00;1.90;;;28.90;41.60;;;;;;6278011;22;20520;-77
2022/08/11 16:06:50;;;;;;;1.60;1.50;;;29.00;41.60;;;;;;6278241;22;20433;-77
2022/08/11 16:09:24;;;;;;;1.90;1.73;;;29.00;41.60;;;;;;6277466;22;20774;-77
2022/08/11 16:11:57;;;;;;;1.87;1.67;;;28.90;41.80;;;;;;6278008;22;20744;-77
2022/08/11 16:17:12;;;;;;;2.10;1.77;;;28.90;41.70;;;;;;6277555;22;20433;-74
2022/08/11 16:19:42;;;;;;;1.93;1.83;;;28.80;41.20;;;;;;6278150;22;20438;-75
2022/08/11 16:22:14;;;;;;;1.73;1.40;;;28.80;41.40;;;;;;6277267;22;20532;-75
2022/08/11 16:24:45;;;;;;;1.90;1.80;;;28.80;41.20;;;;;;6277920;22;20792;-75
2022/08/11 16:27:18;;;;;;;1.63;1.53;;;28.70;41.20;;;;;;6277597;22;20442;-76
2022/08/11 16:29:47;;;;;;;2.43;2.23;;;28.70;41.50;;;;;;6277065;22;20445;-75
2022/08/11 16:32:19;;;;;;;2.63;1.90;;;28.70;41.90;;;;;;6277827;22;20433;-79
2022/08/11 16:40:22;;;;;;;3.27;1.77;;;28.60;41.50;;;;;;6277183;22;20429;-76
2022/08/11 16:48:31;;;;;;;2.90;1.83;;;28.60;41.30;;;;;;6278489;22;20437;-79
2022/08/11 16:50:59;;;;;;;4.20;1.53;;;28.60;41.10;;;;;;6278178;22;20434;-79
2022/08/11 16:53:29;;;;;;;2.10;1.90;;;28.60;41.00;;;;;;6278701;22;20906;-76
2022/08/11 16:56:01;;;;;;;4.30;2.70;;;28.60;40.70;;;;;;6280438;22;20800;-76
2022/08/11 17:01:20;;;;;;;2.40;1.73;;;28.60;41.70;;;;;;6281120;22;20437;-76
2022/08/11 17:15:03;;;;;;;3.80;2.10;;;28.60;41.90;;;;;;6288196;22;20875;-79
2022/08/11 17:17:45;;;;;;;3.83;3.00;;;28.50;41.70;;;;;;6279485;22;20434;-79
2022/08/11 17:20:14;;;;;;;6.20;5.60;;;28.40;41.10;;;;;;6278249;22;20430;-77
2022/08/11 17:25:30;;;;;;;4.20;3.73;;;28.40;41.00;;;;;;6276819;22;20797;-76
2022/08/11 17:27:59;;;;;;;4.53;2.50;;;28.30;40.60;;;;;;6277380;22;20501;-76
2022/08/11 17:35:57;;;;;;;1.50;1.30;;;28.20;40.70;;;;;;6276863;22;20440;-75
2022/08/11 17:38:25;;;;;;;1.60;1.50;;;28.20;40.90;;;;;;6278473;22;21278;-80
2022/08/11 17:49:13;;;;;;;1.93;1.83;;;28.20;40.90;;;;;;6281095;22;20952;-78
2022/08/11 18:00:02;;;;;;;5.13;2.30;;;28.10;41.40;;;;;;6280728;22;20437;-80
2022/08/11 18:05:21;;;;;;;2.80;1.83;;;28.10;41.90;;;;;;6279003;22;20484;-76
